Terminal Aerodrome Forecast
Issued by NWS Sterling, VA

Home | Current Version | Previous Version | Text Only | Print | Product List | Glossary On
Versions: 1 2 3 4 5 6 7 8 9 10 11 12 13 14 15 16 17 18 19 20 21 22
000
FTUS41 KLWX 251739
TAFBWI
TAF
KBWI 251739Z 2518/2624 29004KT P6SM OVC090
     FM260000 00000KT P6SM -RA OVC090
     FM260200 00000KT P6SM -RA OVC050
     FM260500 00000KT 6SM -RA OVC025
     FM260600 00000KT P6SM OVC015
     FM260700 00000KT P6SM OVC025
     FM260900 VRB03KT P6SM OVC050
     FM261900 35006KT P6SM SCT250=

USA.gov is the U.S. government's official web portal to all federal, state and local government web resources and services.